AirNav   Pilot Hours Calculator
 
 1254 users online  

KFLY Meadow Lake Airport
Colorado Springs, Colorado, USA

GOING TO COLORADO SPRINGS?


FAA INFORMATION EFFECTIVE 16 JUNE 2022

Location

FAA Identifier: FLY
Lat/Long: 38-56-33.9710N 104-34-11.6570W
38-56.566183N 104-34.194283W
38.9427697,-104.5699047
(estimated)
Elevation: 6878.1 ft. / 2096.4 m (surveyed)
Variation: 11E (1985)
From city: 14 miles NE of COLORADO SPRINGS, CO
Time zone: UTC -6 (UTC -7 during Standard Time)
Zip code: 80831

Airport Operations

Airport use: Open to the public
Activation date: 11/1967
Control tower: no
ARTCC: DENVER CENTER
FSS: DENVER FLIGHT SERVICE STATION
NOTAMs facility: DEN (NOTAM-D service available)
Attendance: 0800-1700
Wind indicator: lighted
Segmented circle: yes
Lights: ACTVT & INCR INTST MIRL RWY 15/33 - CTAF. PAPI RWY 15 & 33 ON CONSLY.
Beacon: white-green (lighted land airport)
Operates sunset to sunrise.

Airport Communications

CTAF/UNICOM: 122.7
WX AWOS-3PT: 118.450 (719-683-5371)
WX ASOS at COS (10 nm SW): PHONE 719-380-6748
WX ASOS at CO90 (17 nm SE): 125.0 (719-637-9696)
WX AWOS-3 at FCS (18 nm SW): 125.0 (719-637-9696)

Airport Services

Fuel available: 100LL
100LL:100LL AVBL 24 HRS SELF SVC CREDIT CARD.
Parking: hangars and tiedowns
Airframe service: MAJOR
Powerplant service: MAJOR
Bottled oxygen: NONE
Bulk oxygen: LOW

Runway Information

Runway 15/33

Dimensions: 6001 x 60 ft. / 1829 x 18 m
Surface: asphalt, in excellent condition
Weight bearing capacity: 
Single wheel: 12.5
Runway edge lights: medium intensity
RUNWAY 15  RUNWAY 33
Latitude: 38-57.208218N38-56.276998N
Longitude: 104-34.476790W104-34.053608W
Elevation: 6878.1 ft.6791.4 ft.
Traffic pattern: leftright
Runway heading: 149 magnetic, 160 true329 magnetic, 340 true
Markings: nonprecision, in poor conditionnonprecision, in poor condition
Visual slope indicator: 2-light PAPI on left (3.50 degrees glide path)2-light PAPI on left (3.00 degrees glide path)
Touchdown point: yes, no lightsyes, no lights
Obstructions: 18 ft. road, 558 ft. from runway, 115 ft. left of centerline, 19:1 slope to clearnone

Runway 8/26

Dimensions: 2126 x 35 ft. / 648 x 11 m
RWY 08/26 1149 FT GRVL ON E END OF RWY, 925 FT ASPH ON W END OF RWY.
Surface: asphalt/gravel, in fair condition
RUNWAY 8  RUNWAY 26
Latitude: 38-56.756453N38-56.750192N
Longitude: 104-34.228658W104-33.780433W
Elevation: 6824.8 ft.6799.4 ft.
Traffic pattern: rightleft
Runway heading: 080 magnetic, 091 true260 magnetic, 271 true
Markings: none, in poor conditionnone, in poor condition
Touchdown point: yes, no lightsyes, no lights
Obstructions: none10 ft. road, 1:1 slope to clear

Runway 15G/33G

Dimensions: 5001 x 200 ft. / 1524 x 61 m
Surface: turf, in fair condition
RUNWAY 15G  RUNWAY 33G
Latitude: 38-56.662995N38-55.886910N
Longitude: 104-34.366322W104-34.013498W
Elevation: 6776.8 ft.6776.8 ft.
Traffic pattern: leftleft
Runway heading: 149 magnetic, 160 true329 magnetic, 340 true
Markings: none, in poor conditionnone, in poor condition
Touchdown point: yes, no lightsyes, no lights

Airport Ownership and Management from official FAA records

Ownership: Privately-owned
Owner: MEADOW LAKE AIRPORT ASSOC., INC.
13625 JUDGE ORR ROAD
PEYTON, CO 80831
Phone 719-339-0928
DAVE ELLIOTT ASSOCIATION PRESIDENT.
Manager: DAVE ELLIOTT
13625 JUDGE ORR ROAD
PEYTON, CO 80831
Phone 719-339-0928
ALTN PHONE IS MIKE BARR AT (719) 287-4204

Airport Operational Statistics

Aircraft based on the field: 419
Single engine airplanes: 366
Multi engine airplanes: 19
Jet airplanes: 2
Helicopters: 7
Gliders airplanes: 18
Ultralights: 7
    
Aircraft operations: avg 185/day *
51% local general aviation
30% military
19% transient general aviation
* for 12-month period ending 31 December 2018

Additional Remarks

BE ALERT; INTENSIVE USAF STUDENT TRAINING IN VICINITY OF COLORADO SPRINGS & PUEBLO COLORADO.
RWY 26 HAS PLUS-15 FT ROAD EXTENDING EAST FROM THLD.
PWRD PARAGLIDERS AND MOBILE AEROSTATS OPERATE SE SIDE OF ARPT SURF-500'
RWY 15G/33G HAS EDGES AND THLDS MKD WITH WHITE TIRES.
FOR CD CTC COLORADO SPRINGS APCH AT 719-556-9105.
RWY 08/26 EDGES MKD WITH WHITE REFLECTORS AND TIRES.
GLIDERS OPERATE ON 15G/33G AND WEST SIDE OF ARPT.
RY 26 HAS -4FT TERRAIN 5FT FROM RY EDGE FIRST 100FT ON BOTH SIDES OF RY.
WILDLIFE ON AND INVOF OF AIRPORT
RWY 26 PLUS-4 FT FENCE 50 FT RIGHT OF CNTRLN 95 FT FROM THLD.

Instrument Procedures

There are no published instrument procedures at KFLY.

Some nearby airports with instrument procedures:

KCOS - City of Colorado Springs Municipal Airport (10 nm SW)
KPUB - Pueblo Memorial Airport (39 nm S)
1V6 - Fremont County Airport (40 nm SW)
KAPA - Centennial Airport (40 nm N)
KBKF - Buckley Space Force Base (46 nm N)
 
Loc | Ops | Rwys | IFR | FBO | Links
Com | Nav | Svcs | Stats | Notes

AirBoss

 
Area around KFLY (Meadow Lake Airport)
 
Road maps at: MapQuest Bing Google
 
Aerial photo
WARNING: Photo may not be current or correct
Aerial photo of KFLY (Meadow Lake Airport)
Photo by Mitch Bowers
WWW.IMAGEWERX.US
Photo taken 16-May-2018
looking northwest.

Do you have a better or more recent aerial photo of Meadow Lake Airport that you would like to share? If so, please send us your photo.

 
Sectional chart

 
Airport distance calculator
Flying to Meadow Lake Airport? Find the distance to fly.

From to KFLY

Sunrise and sunset
Times for 27-Jun-2022
 Local
(UTC-6)
 Zulu
(UTC)
Morning civil twilight05:0411:04
Sunrise05:3611:36
Sunset20:2702:27
Evening civil twilight20:5902:59

Current date and time
Zulu (UTC)  28-Jun-2022 00:15:44
Local (UTC-6)  27-Jun-2022 18:15:44
 
METAR
KFLY 272353Z AUTO 17011KT 10SM CLR 22/08 A3039 RMK AO2 T02210084 10240 20184
KCOS 
10nm SW 
272354Z 16014G20KT 10SM FEW080 FEW230 23/10 A3034 RMK AO2 SLP204 T02330100 10239 20189 56009
KAFF 
12nm W 
272358Z AUTO 16012KT 10SM CLR 23/09 A3033 RMK AO2 SLP197 T02270091 10237 20184 56008 PWINO $
KMNH 
17nm N 
272355Z AUTO 19009KT 10SM SCT100 22/M29 A3038 RMK AO2
KABH 
17nm SE 
272358Z AUTO 18012KT 10SM CLR 23/09 A3035 RMK AO2 SLP214 T02290093 10239 20192 57010
KFCS 
19nm SW 
272358Z AUTO 15010KT 10SM CLR 23/09 A3030 RMK AO2 SLP222 T02320092 10245 20188 56007 $
TAF
KCOS 
10nm SW 
271747Z 2718/2818 13009KT P6SM FEW030 SCT150 FM272300 15009KT P6SM VCSH SCT050 BKN100 FM280300 VRB06KT P6SM -TSRA BKN040CB FM280600 VRB05KT P6SM SCT040 BKN100 FM281500 15008KT P6SM FEW050 SCT150
KAFF 
12nm W 
272121Z 2721/2901 15010G15KT 9999 FEW080 SCT250 QNH3031INS BECMG 2802/2803 14009KT 9999 FEW050 BKN080 BKN250 QNH3036INS TEMPO 2803/2806 VRB15G30KT VCTS BKN050 BKN080CB BKN250 BECMG 2806/2807 VRB06KT 9999 FEW080 QNH3040INS BECMG 2809/2810 02009KT 9999 SKC 520103 QNH3040INS WND 260V050 ROTOR CONDS EXIST BECMG 2814/2815 13009KT 9999 SKC QNH3037INS BECMG 2816/2817 14010G15KT 9999 SKC QNH3034INS BECMG 2818/2819 15012G20KT 9999 FEW150 QNH3027INS TEMPO 2822/2824 VRB20G30KT VCTS FEW080CB SCT150 TX29/281
KFCS 
19nm SW 
272100Z 2721/2903 14012G18KT 8000 -SHRA VCTS FEW060CB SCT180 QNH3032INS TEMPO 2722/2803 29015G25KT 6000 -TSRA SCT060CB BECMG 2802/2803 34009KT 9999 NSW SCT060 SCT120 QNH3038INS BECMG 2806/2807 30006KT 9999 SKC QNH3041INS BECMG 2816/2817 27009KT 9999 FEW150 QNH3034INS TX24/2721Z TN12/2810Z
NOTAMs
Click for the latest NOTAMs
NOTAMs are issued by the DoD/FAA and will open in a separate window not controlled by AirNav.

 

 
 

FBO, Fuel Providers, and Aircraft Ground Support

  
 Business Name 
 
 Contact 
 
 Services / Description 
 
Fuel Prices
 
Comments
  
Phantom Fuel, LLC 719-683-2202
[email]
Aviation fuel

More info about Phantom Fuel, LLC
Phillips 66
100LL
SS $6.98 
 Updated 16-Jun-2022
 
   write
SS=Self service
Update Fuel Prices
 

Would you like to see your business listed on this page?

 If your business provides an interesting product or service to pilots, flight crews, aircraft, or users of the Meadow Lake Airport, you should consider listing it here.  To start the listing process, click on the button below
 
Add a business
 

Other Pages about Meadow Lake Airport

www.KFLY.org
www.cosairports.com
 
Update a link
 
Copyright © AirNav, LLC. All rights reserved. Privacy Policy  Contact